SHRB weather

Rodelbahn Heliport
Santiago, Santiago Metropolitan Region, Chile

Public forecast

Using degrees Celsius for public forecast. Weather courtesy of forecast.io.

METAR (pilot weather report)

Report is more than 6 hours old.

Closest report is Eulogio Sánchez Airport, 1.5 nm (2.8 km) W. Retrieved 2019/09/22 23:00 UTC (12 hours ago):

SCTB 222300Z 24003KT CAVOK 22/07 Q1017

TAF (pilot weather forecast)

Closest forecast is Comodoro Arturo Merino Benítez International Airport, 14.0 nm (26.0 km) WNW. Retrieved 2019/09/23 06:00 UTC (5 hours ago):

TAF SCEL 230403Z 2306/2406 16004KT 8000 NSC TX23/2319Z TN05/2311Z BECMG 2308/2310 4000 BR FEW008 TEMPO 2310/2314 VRB02KT 0800 BCFG SCT002 BKN008 BECMG 2316/2318 16010KT CAVOK BECMG 2401/2403 27004KT